sensor_id;sensor_type;location;lat;lon;timestamp;P1;durP1;ratioP1;P2;durP2;ratioP2
34481;SDS011;20720;48.886;9.388;2022-12-07T00:01:15;12.73;;;7.97;;
34481;SDS011;20720;48.886;9.388;2022-12-07T00:03:45;12.60;;;7.90;;
34481;SDS011;20720;48.886;9.388;2022-12-07T00:06:12;13.55;;;7.90;;
34481;SDS011;20720;48.886;9.388;2022-12-07T00:08:39;14.13;;;7.28;;
34481;SDS011;20720;48.886;9.388;2022-12-07T00:11:06;13.77;;;7.70;;
34481;SDS011;20720;48.886;9.388;2022-12-07T00:13:39;11.35;;;6.82;;
34481;SDS011;20720;48.886;9.388;2022-12-07T00:16:09;10.98;;;6.47;;
34481;SDS011;20720;48.886;9.388;2022-12-07T00:18:36;11.68;;;7.70;;
34481;SDS011;20720;48.886;9.388;2022-12-07T00:21:03;11.77;;;7.60;;
34481;SDS011;20720;48.886;9.388;2022-12-07T00:23:31;12.07;;;7.60;;
34481;SDS011;20720;48.886;9.388;2022-12-07T00:26:02;10.75;;;6.85;;
34481;SDS011;20720;48.886;9.388;2022-12-07T00:28:32;11.00;;;7.45;;
34481;SDS011;20720;48.886;9.388;2022-12-07T00:31:05;12.25;;;7.85;;
34481;SDS011;20720;48.886;9.388;2022-12-07T00:33:33;12.90;;;7.90;;
34481;SDS011;20720;48.886;9.388;2022-12-07T00:35:59;12.52;;;7.72;;
34481;SDS011;20720;48.886;9.388;2022-12-07T00:38:27;11.95;;;7.22;;
34481;SDS011;20720;48.886;9.388;2022-12-07T00:40:54;11.50;;;7.75;;
34481;SDS011;20720;48.886;9.388;2022-12-07T00:43:20;12.10;;;7.43;;
34481;SDS011;20720;48.886;9.388;2022-12-07T00:45:46;11.48;;;7.13;;
34481;SDS011;20720;48.886;9.388;2022-12-07T00:48:11;11.05;;;7.53;;
34481;SDS011;20720;48.886;9.388;2022-12-07T00:50:36;11.25;;;7.10;;
34481;SDS011;20720;48.886;9.388;2022-12-07T00:53:02;11.10;;;6.78;;
34481;SDS011;20720;48.886;9.388;2022-12-07T00:55:27;10.60;;;7.00;;
34481;SDS011;20720;48.886;9.388;2022-12-07T00:57:52;10.05;;;5.97;;
34481;SDS011;20720;48.886;9.388;2022-12-07T01:00:18;10.30;;;6.60;;
34481;SDS011;20720;48.886;9.388;2022-12-07T01:02:43;9.93;;;6.50;;
34481;SDS011;20720;48.886;9.388;2022-12-07T01:05:08;11.52;;;7.03;;
34481;SDS011;20720;48.886;9.388;2022-12-07T01:07:34;11.73;;;6.70;;
34481;SDS011;20720;48.886;9.388;2022-12-07T01:10:00;11.90;;;7.30;;
34481;SDS011;20720;48.886;9.388;2022-12-07T01:12:25;10.57;;;6.95;;
34481;SDS011;20720;48.886;9.388;2022-12-07T01:14:51;9.20;;;6.32;;
34481;SDS011;20720;48.886;9.388;2022-12-07T01:17:16;12.30;;;7.35;;
34481;SDS011;20720;48.886;9.388;2022-12-07T01:19:41;11.45;;;7.22;;
34481;SDS011;20720;48.886;9.388;2022-12-07T01:22:06;12.27;;;7.35;;
34481;SDS011;20720;48.886;9.388;2022-12-07T01:24:32;12.68;;;7.95;;
34481;SDS011;20720;48.886;9.388;2022-12-07T01:26:57;11.75;;;6.88;;
34481;SDS011;20720;48.886;9.388;2022-12-07T01:29:22;11.90;;;7.25;;
34481;SDS011;20720;48.886;9.388;2022-12-07T01:31:48;11.82;;;7.57;;
34481;SDS011;20720;48.886;9.388;2022-12-07T01:34:14;11.52;;;6.97;;
34481;SDS011;20720;48.886;9.388;2022-12-07T01:36:39;11.65;;;6.90;;
34481;SDS011;20720;48.886;9.388;2022-12-07T01:39:05;11.80;;;7.03;;
34481;SDS011;20720;48.886;9.388;2022-12-07T01:41:32;10.20;;;6.75;;
34481;SDS011;20720;48.886;9.388;2022-12-07T01:44:17;12.35;;;7.65;;
34481;SDS011;20720;48.886;9.388;2022-12-07T01:46:51;11.80;;;7.70;;
34481;SDS011;20720;48.886;9.388;2022-12-07T01:49:21;11.75;;;7.00;;
34481;SDS011;20720;48.886;9.388;2022-12-07T01:51:51;12.38;;;6.82;;
34481;SDS011;20720;48.886;9.388;2022-12-07T01:54:21;12.52;;;7.60;;
34481;SDS011;20720;48.886;9.388;2022-12-07T01:56:49;12.13;;;7.63;;
34481;SDS011;20720;48.886;9.388;2022-12-07T01:59:18;11.77;;;6.85;;
34481;SDS011;20720;48.886;9.388;2022-12-07T02:01:46;11.70;;;6.85;;
34481;SDS011;20720;48.886;9.388;2022-12-07T02:04:11;13.95;;;7.97;;
34481;SDS011;20720;48.886;9.388;2022-12-07T02:06:37;12.30;;;7.70;;
34481;SDS011;20720;48.886;9.388;2022-12-07T02:09:03;12.25;;;7.50;;
34481;SDS011;20720;48.886;9.388;2022-12-07T02:11:29;11.68;;;7.68;;
34481;SDS011;20720;48.886;9.388;2022-12-07T02:13:54;12.45;;;7.45;;
34481;SDS011;20720;48.886;9.388;2022-12-07T02:25:28;10.73;;;6.70;;
34481;SDS011;20720;48.886;9.388;2022-12-07T02:28:07;10.48;;;6.68;;
34481;SDS011;20720;48.886;9.388;2022-12-07T02:30:42;12.15;;;7.53;;
34481;SDS011;20720;48.886;9.388;2022-12-07T02:33:25;22.10;;;10.88;;
34481;SDS011;20720;48.886;9.388;2022-12-07T02:36:04;20.58;;;10.95;;
34481;SDS011;20720;48.886;9.388;2022-12-07T02:41:06;13.80;;;7.90;;
34481;SDS011;20720;48.886;9.388;2022-12-07T02:43:45;15.48;;;7.88;;
34481;SDS011;20720;48.886;9.388;2022-12-07T02:46:17;14.85;;;8.10;;
34481;SDS011;20720;48.886;9.388;2022-12-07T02:48:48;14.10;;;8.02;;
34481;SDS011;20720;48.886;9.388;2022-12-07T02:51:17;14.63;;;8.30;;
34481;SDS011;20720;48.886;9.388;2022-12-07T02:53:43;13.98;;;7.93;;
34481;SDS011;20720;48.886;9.388;2022-12-07T03:04:46;13.18;;;7.90;;
34481;SDS011;20720;48.886;9.388;2022-12-07T03:07:27;15.55;;;8.70;;
34481;SDS011;20720;48.886;9.388;2022-12-07T03:09:59;14.05;;;8.25;;
34481;SDS011;20720;48.886;9.388;2022-12-07T03:12:42;14.38;;;8.43;;
34481;SDS011;20720;48.886;9.388;2022-12-07T03:15:14;13.40;;;7.82;;
34481;SDS011;20720;48.886;9.388;2022-12-07T03:17:47;15.43;;;8.27;;
34481;SDS011;20720;48.886;9.388;2022-12-07T03:20:16;13.27;;;8.40;;
34481;SDS011;20720;48.886;9.388;2022-12-07T03:22:46;13.93;;;8.10;;
34481;SDS011;20720;48.886;9.388;2022-12-07T03:25:13;13.90;;;8.18;;
34481;SDS011;20720;48.886;9.388;2022-12-07T03:27:43;17.63;;;8.65;;
34481;SDS011;20720;48.886;9.388;2022-12-07T03:30:17;13.75;;;8.98;;
34481;SDS011;20720;48.886;9.388;2022-12-07T03:32:57;12.05;;;6.50;;
34481;SDS011;20720;48.886;9.388;2022-12-07T03:35:34;13.32;;;7.95;;
34481;SDS011;20720;48.886;9.388;2022-12-07T03:40:47;15.32;;;8.45;;
34481;SDS011;20720;48.886;9.388;2022-12-07T03:43:20;13.90;;;8.50;;
34481;SDS011;20720;48.886;9.388;2022-12-07T03:46:00;13.13;;;7.78;;
34481;SDS011;20720;48.886;9.388;2022-12-07T03:48:37;14.70;;;7.95;;
34481;SDS011;20720;48.886;9.388;2022-12-07T03:53:54;14.75;;;8.65;;
34481;SDS011;20720;48.886;9.388;2022-12-07T03:56:27;14.80;;;8.27;;
34481;SDS011;20720;48.886;9.388;2022-12-07T03:58:54;15.43;;;7.93;;
34481;SDS011;20720;48.886;9.388;2022-12-07T04:01:19;14.02;;;8.10;;
34481;SDS011;20720;48.886;9.388;2022-12-07T04:03:45;16.77;;;9.15;;
34481;SDS011;20720;48.886;9.388;2022-12-07T04:06:10;18.08;;;9.20;;
34481;SDS011;20720;48.886;9.388;2022-12-07T04:08:35;16.02;;;9.38;;
34481;SDS011;20720;48.886;9.388;2022-12-07T04:11:01;19.10;;;9.82;;
34481;SDS011;20720;48.886;9.388;2022-12-07T04:13:26;18.88;;;10.60;;
34481;SDS011;20720;48.886;9.388;2022-12-07T04:15:52;22.48;;;11.57;;
34481;SDS011;20720;48.886;9.388;2022-12-07T04:18:17;23.10;;;10.35;;
34481;SDS011;20720;48.886;9.388;2022-12-07T04:20:42;20.40;;;11.38;;
34481;SDS011;20720;48.886;9.388;2022-12-07T04:23:07;18.98;;;10.77;;
34481;SDS011;20720;48.886;9.388;2022-12-07T04:25:33;20.20;;;10.93;;
34481;SDS011;20720;48.886;9.388;2022-12-07T04:27:58;22.70;;;11.40;;
34481;SDS011;20720;48.886;9.388;2022-12-07T04:30:23;16.63;;;10.32;;
34481;SDS011;20720;48.886;9.388;2022-12-07T04:32:48;19.85;;;10.43;;
34481;SDS011;20720;48.886;9.388;2022-12-07T04:35:14;18.02;;;10.45;;
34481;SDS011;20720;48.886;9.388;2022-12-07T04:37:39;16.10;;;9.38;;
34481;SDS011;20720;48.886;9.388;2022-12-07T04:40:07;18.10;;;10.95;;
34481;SDS011;20720;48.886;9.388;2022-12-07T04:42:35;17.48;;;9.45;;
34481;SDS011;20720;48.886;9.388;2022-12-07T04:45:01;15.70;;;9.68;;
34481;SDS011;20720;48.886;9.388;2022-12-07T04:47:26;16.33;;;9.88;;
34481;SDS011;20720;48.886;9.388;2022-12-07T04:49:51;15.75;;;9.00;;
34481;SDS011;20720;48.886;9.388;2022-12-07T04:52:16;16.92;;;8.35;;
34481;SDS011;20720;48.886;9.388;2022-12-07T04:54:42;19.63;;;10.25;;
34481;SDS011;20720;48.886;9.388;2022-12-07T04:57:07;15.52;;;8.85;;
34481;SDS011;20720;48.886;9.388;2022-12-07T04:59:32;19.15;;;10.63;;
34481;SDS011;20720;48.886;9.388;2022-12-07T05:01:57;19.15;;;10.60;;
34481;SDS011;20720;48.886;9.388;2022-12-07T05:04:23;17.95;;;9.10;;
34481;SDS011;20720;48.886;9.388;2022-12-07T05:06:48;15.32;;;8.90;;
34481;SDS011;20720;48.886;9.388;2022-12-07T05:09:13;13.60;;;8.35;;
34481;SDS011;20720;48.886;9.388;2022-12-07T05:11:38;16.55;;;9.65;;
34481;SDS011;20720;48.886;9.388;2022-12-07T05:14:09;13.75;;;8.68;;
34481;SDS011;20720;48.886;9.388;2022-12-07T05:16:43;18.52;;;11.25;;
34481;SDS011;20720;48.886;9.388;2022-12-07T05:19:09;20.65;;;12.20;;
34481;SDS011;20720;48.886;9.388;2022-12-07T05:21:36;24.90;;;12.23;;
34481;SDS011;20720;48.886;9.388;2022-12-07T05:24:02;18.40;;;10.63;;
34481;SDS011;20720;48.886;9.388;2022-12-07T05:26:28;17.42;;;9.00;;
34481;SDS011;20720;48.886;9.388;2022-12-07T05:28:54;18.17;;;9.95;;
34481;SDS011;20720;48.886;9.388;2022-12-07T05:31:21;16.60;;;9.00;;
34481;SDS011;20720;48.886;9.388;2022-12-07T05:33:47;17.05;;;9.32;;
34481;SDS011;20720;48.886;9.388;2022-12-07T05:36:12;18.40;;;9.32;;
34481;SDS011;20720;48.886;9.388;2022-12-07T05:38:38;17.50;;;9.73;;
34481;SDS011;20720;48.886;9.388;2022-12-07T05:41:04;19.10;;;9.07;;
34481;SDS011;20720;48.886;9.388;2022-12-07T05:43:30;17.38;;;9.50;;
34481;SDS011;20720;48.886;9.388;2022-12-07T05:45:57;18.52;;;9.75;;
34481;SDS011;20720;48.886;9.388;2022-12-07T05:48:23;16.27;;;9.15;;
34481;SDS011;20720;48.886;9.388;2022-12-07T05:50:49;17.67;;;10.05;;
34481;SDS011;20720;48.886;9.388;2022-12-07T05:53:14;18.42;;;10.23;;
34481;SDS011;20720;48.886;9.388;2022-12-07T05:55:40;19.58;;;10.43;;
34481;SDS011;20720;48.886;9.388;2022-12-07T05:58:05;21.17;;;11.15;;
34481;SDS011;20720;48.886;9.388;2022-12-07T06:00:49;17.60;;;11.30;;
34481;SDS011;20720;48.886;9.388;2022-12-07T06:03:15;19.20;;;10.50;;
34481;SDS011;20720;48.886;9.388;2022-12-07T06:05:40;16.98;;;9.75;;
34481;SDS011;20720;48.886;9.388;2022-12-07T06:08:06;19.92;;;10.38;;
34481;SDS011;20720;48.886;9.388;2022-12-07T06:10:31;17.67;;;9.95;;
34481;SDS011;20720;48.886;9.388;2022-12-07T06:12:57;22.60;;;10.80;;
34481;SDS011;20720;48.886;9.388;2022-12-07T06:15:22;20.50;;;11.48;;
34481;SDS011;20720;48.886;9.388;2022-12-07T06:17:48;21.98;;;11.73;;
34481;SDS011;20720;48.886;9.388;2022-12-07T06:20:13;20.52;;;10.77;;
34481;SDS011;20720;48.886;9.388;2022-12-07T06:22:38;19.98;;;11.05;;
34481;SDS011;20720;48.886;9.388;2022-12-07T06:25:03;25.33;;;12.98;;
34481;SDS011;20720;48.886;9.388;2022-12-07T06:27:29;25.63;;;12.25;;
34481;SDS011;20720;48.886;9.388;2022-12-07T06:29:54;23.90;;;12.27;;
34481;SDS011;20720;48.886;9.388;2022-12-07T06:32:20;19.83;;;11.05;;
34481;SDS011;20720;48.886;9.388;2022-12-07T06:34:45;20.83;;;10.70;;
34481;SDS011;20720;48.886;9.388;2022-12-07T06:37:12;20.00;;;10.50;;
34481;SDS011;20720;48.886;9.388;2022-12-07T06:39:37;22.38;;;10.63;;
34481;SDS011;20720;48.886;9.388;2022-12-07T06:42:03;18.98;;;10.40;;
34481;SDS011;20720;48.886;9.388;2022-12-07T06:44:29;18.45;;;10.57;;
34481;SDS011;20720;48.886;9.388;2022-12-07T06:46:55;18.85;;;10.27;;
34481;SDS011;20720;48.886;9.388;2022-12-07T06:49:20;20.08;;;10.23;;
34481;SDS011;20720;48.886;9.388;2022-12-07T06:51:45;16.60;;;9.50;;
34481;SDS011;20720;48.886;9.388;2022-12-07T06:54:12;18.98;;;9.73;;
34481;SDS011;20720;48.886;9.388;2022-12-07T06:56:38;18.48;;;9.45;;
34481;SDS011;20720;48.886;9.388;2022-12-07T06:59:04;19.15;;;10.35;;
34481;SDS011;20720;48.886;9.388;2022-12-07T07:01:31;18.60;;;10.38;;
34481;SDS011;20720;48.886;9.388;2022-12-07T07:03:57;21.45;;;11.30;;
34481;SDS011;20720;48.886;9.388;2022-12-07T07:06:22;20.15;;;11.23;;
34481;SDS011;20720;48.886;9.388;2022-12-07T07:08:47;19.77;;;11.60;;
34481;SDS011;20720;48.886;9.388;2022-12-07T07:11:12;23.15;;;12.90;;
34481;SDS011;20720;48.886;9.388;2022-12-07T07:13:38;20.90;;;11.35;;
34481;SDS011;20720;48.886;9.388;2022-12-07T07:16:04;21.23;;;11.25;;
34481;SDS011;20720;48.886;9.388;2022-12-07T07:18:30;24.52;;;12.73;;
34481;SDS011;20720;48.886;9.388;2022-12-07T07:20:55;21.83;;;11.93;;
34481;SDS011;20720;48.886;9.388;2022-12-07T07:23:21;17.60;;;10.07;;
34481;SDS011;20720;48.886;9.388;2022-12-07T07:25:47;29.15;;;12.45;;
34481;SDS011;20720;48.886;9.388;2022-12-07T07:28:13;28.30;;;12.60;;
34481;SDS011;20720;48.886;9.388;2022-12-07T07:30:38;23.25;;;11.68;;
34481;SDS011;20720;48.886;9.388;2022-12-07T07:33:04;21.08;;;11.27;;
34481;SDS011;20720;48.886;9.388;2022-12-07T07:35:30;20.50;;;10.25;;
34481;SDS011;20720;48.886;9.388;2022-12-07T07:37:57;21.75;;;11.52;;
34481;SDS011;20720;48.886;9.388;2022-12-07T07:40:23;18.50;;;9.63;;
34481;SDS011;20720;48.886;9.388;2022-12-07T07:42:49;20.02;;;10.63;;
34481;SDS011;20720;48.886;9.388;2022-12-07T07:45:18;16.95;;;10.23;;
34481;SDS011;20720;48.886;9.388;2022-12-07T07:47:45;15.52;;;8.73;;
34481;SDS011;20720;48.886;9.388;2022-12-07T07:50:10;15.75;;;8.77;;
34481;SDS011;20720;48.886;9.388;2022-12-07T07:52:36;15.93;;;8.50;;
34481;SDS011;20720;48.886;9.388;2022-12-07T07:55:01;14.98;;;8.65;;
34481;SDS011;20720;48.886;9.388;2022-12-07T07:57:26;15.98;;;8.65;;
34481;SDS011;20720;48.886;9.388;2022-12-07T07:59:52;15.85;;;9.05;;
34481;SDS011;20720;48.886;9.388;2022-12-07T08:02:18;14.38;;;8.18;;
34481;SDS011;20720;48.886;9.388;2022-12-07T08:04:45;13.68;;;7.85;;
34481;SDS011;20720;48.886;9.388;2022-12-07T08:07:11;15.05;;;7.63;;
34481;SDS011;20720;48.886;9.388;2022-12-07T08:09:38;16.58;;;9.95;;
34481;SDS011;20720;48.886;9.388;2022-12-07T08:12:03;15.40;;;8.95;;
34481;SDS011;20720;48.886;9.388;2022-12-07T08:14:29;15.30;;;8.65;;
34481;SDS011;20720;48.886;9.388;2022-12-07T08:16:55;14.40;;;8.43;;
34481;SDS011;20720;48.886;9.388;2022-12-07T08:19:20;12.77;;;7.75;;
34481;SDS011;20720;48.886;9.388;2022-12-07T08:21:46;11.95;;;7.80;;
34481;SDS011;20720;48.886;9.388;2022-12-07T08:24:11;17.05;;;8.07;;
34481;SDS011;20720;48.886;9.388;2022-12-07T08:26:36;14.38;;;8.13;;
34481;SDS011;20720;48.886;9.388;2022-12-07T08:29:02;12.40;;;7.47;;
34481;SDS011;20720;48.886;9.388;2022-12-07T08:31:27;10.88;;;6.57;;
34481;SDS011;20720;48.886;9.388;2022-12-07T08:33:53;12.32;;;7.43;;
34481;SDS011;20720;48.886;9.388;2022-12-07T08:36:19;11.90;;;7.13;;
34481;SDS011;20720;48.886;9.388;2022-12-07T08:38:44;12.05;;;7.43;;
34481;SDS011;20720;48.886;9.388;2022-12-07T08:41:10;15.27;;;7.28;;
34481;SDS011;20720;48.886;9.388;2022-12-07T08:43:35;14.07;;;7.97;;
34481;SDS011;20720;48.886;9.388;2022-12-07T08:46:12;12.98;;;7.22;;
34481;SDS011;20720;48.886;9.388;2022-12-07T08:48:46;14.48;;;7.25;;
34481;SDS011;20720;48.886;9.388;2022-12-07T08:51:18;12.57;;;7.53;;
34481;SDS011;20720;48.886;9.388;2022-12-07T08:53:44;11.32;;;7.57;;
34481;SDS011;20720;48.886;9.388;2022-12-07T08:56:10;15.23;;;7.00;;
34481;SDS011;20720;48.886;9.388;2022-12-07T08:58:36;12.18;;;7.60;;
34481;SDS011;20720;48.886;9.388;2022-12-07T09:01:04;12.63;;;6.95;;
34481;SDS011;20720;48.886;9.388;2022-12-07T09:03:29;12.40;;;7.50;;
34481;SDS011;20720;48.886;9.388;2022-12-07T09:05:55;13.27;;;6.35;;
34481;SDS011;20720;48.886;9.388;2022-12-07T09:08:21;9.65;;;5.97;;
34481;SDS011;20720;48.886;9.388;2022-12-07T09:10:47;11.25;;;7.13;;
34481;SDS011;20720;48.886;9.388;2022-12-07T09:13:12;11.35;;;6.18;;
34481;SDS011;20720;48.886;9.388;2022-12-07T09:15:38;10.70;;;6.47;;
34481;SDS011;20720;48.886;9.388;2022-12-07T09:18:03;11.63;;;6.55;;
34481;SDS011;20720;48.886;9.388;2022-12-07T09:20:28;10.00;;;5.80;;
34481;SDS011;20720;48.886;9.388;2022-12-07T09:22:53;10.02;;;6.50;;
34481;SDS011;20720;48.886;9.388;2022-12-07T09:25:20;11.88;;;6.85;;
34481;SDS011;20720;48.886;9.388;2022-12-07T09:27:45;10.50;;;6.28;;
34481;SDS011;20720;48.886;9.388;2022-12-07T09:30:10;10.18;;;5.70;;
34481;SDS011;20720;48.886;9.388;2022-12-07T09:32:36;10.40;;;6.20;;
34481;SDS011;20720;48.886;9.388;2022-12-07T09:35:01;10.18;;;6.38;;
34481;SDS011;20720;48.886;9.388;2022-12-07T09:37:27;8.05;;;5.13;;
34481;SDS011;20720;48.886;9.388;2022-12-07T09:39:52;10.27;;;5.88;;
34481;SDS011;20720;48.886;9.388;2022-12-07T09:44:58;9.73;;;6.13;;
34481;SDS011;20720;48.886;9.388;2022-12-07T09:47:25;13.25;;;6.20;;
34481;SDS011;20720;48.886;9.388;2022-12-07T09:49:51;9.13;;;5.78;;
34481;SDS011;20720;48.886;9.388;2022-12-07T09:52:19;10.80;;;5.80;;
34481;SDS011;20720;48.886;9.388;2022-12-07T09:54:50;10.45;;;6.38;;
34481;SDS011;20720;48.886;9.388;2022-12-07T09:57:16;10.45;;;6.43;;
34481;SDS011;20720;48.886;9.388;2022-12-07T09:59:43;12.98;;;5.68;;
34481;SDS011;20720;48.886;9.388;2022-12-07T10:04:59;8.23;;;5.20;;
34481;SDS011;20720;48.886;9.388;2022-12-07T10:07:25;12.00;;;5.63;;
34481;SDS011;20720;48.886;9.388;2022-12-07T10:09:50;9.43;;;5.25;;
34481;SDS011;20720;48.886;9.388;2022-12-07T10:12:16;8.85;;;4.95;;
34481;SDS011;20720;48.886;9.388;2022-12-07T10:14:54;10.35;;;6.25;;
34481;SDS011;20720;48.886;9.388;2022-12-07T10:17:47;7.72;;;5.20;;
34481;SDS011;20720;48.886;9.388;2022-12-07T10:20:15;8.80;;;5.15;;
34481;SDS011;20720;48.886;9.388;2022-12-07T10:23:00;10.48;;;5.53;;
34481;SDS011;20720;48.886;9.388;2022-12-07T10:25:31;8.50;;;5.40;;
34481;SDS011;20720;48.886;9.388;2022-12-07T10:28:11;10.27;;;5.30;;
34481;SDS011;20720;48.886;9.388;2022-12-07T10:33:29;11.15;;;6.18;;
34481;SDS011;20720;48.886;9.388;2022-12-07T10:35:56;11.02;;;5.10;;
34481;SDS011;20720;48.886;9.388;2022-12-07T10:38:23;9.15;;;5.25;;
34481;SDS011;20720;48.886;9.388;2022-12-07T10:41:02;9.07;;;5.55;;
34481;SDS011;20720;48.886;9.388;2022-12-07T10:43:29;10.68;;;5.75;;
34481;SDS011;20720;48.886;9.388;2022-12-07T10:49:04;8.38;;;5.07;;
34481;SDS011;20720;48.886;9.388;2022-12-07T10:51:44;8.40;;;4.82;;
34481;SDS011;20720;48.886;9.388;2022-12-07T11:00:01;9.70;;;5.40;;
34481;SDS011;20720;48.886;9.388;2022-12-07T11:13:33;8.65;;;4.82;;
34481;SDS011;20720;48.886;9.388;2022-12-07T11:21:44;8.70;;;5.28;;
34481;SDS011;20720;48.886;9.388;2022-12-07T11:24:17;8.77;;;5.03;;
34481;SDS011;20720;48.886;9.388;2022-12-07T11:26:54;10.55;;;5.20;;
34481;SDS011;20720;48.886;9.388;2022-12-07T11:38:14;7.97;;;4.60;;
34481;SDS011;20720;48.886;9.388;2022-12-07T11:40:43;7.72;;;4.78;;
34481;SDS011;20720;48.886;9.388;2022-12-07T11:43:18;8.38;;;5.18;;
34481;SDS011;20720;48.886;9.388;2022-12-07T11:45:59;8.77;;;4.85;;
34481;SDS011;20720;48.886;9.388;2022-12-07T11:48:40;11.70;;;5.10;;
34481;SDS011;20720;48.886;9.388;2022-12-07T11:51:11;5.60;;;3.65;;
34481;SDS011;20720;48.886;9.388;2022-12-07T11:56:28;8.25;;;4.50;;
34481;SDS011;20720;48.886;9.388;2022-12-07T12:06:36;8.77;;;5.82;;
34481;SDS011;20720;48.886;9.388;2022-12-07T12:12:01;10.38;;;6.22;;
34481;SDS011;20720;48.886;9.388;2022-12-07T12:17:41;11.27;;;5.85;;
34481;SDS011;20720;48.886;9.388;2022-12-07T12:20:29;8.65;;;5.13;;
34481;SDS011;20720;48.886;9.388;2022-12-07T12:23:32;10.00;;;6.18;;
34481;SDS011;20720;48.886;9.388;2022-12-07T12:28:34;13.07;;;6.38;;
34481;SDS011;20720;48.886;9.388;2022-12-07T12:31:06;11.15;;;6.38;;
34481;SDS011;20720;48.886;9.388;2022-12-07T12:33:35;13.45;;;6.65;;
34481;SDS011;20720;48.886;9.388;2022-12-07T12:36:17;12.30;;;6.38;;
34481;SDS011;20720;48.886;9.388;2022-12-07T12:38:47;10.45;;;6.53;;
34481;SDS011;20720;48.886;9.388;2022-12-07T12:51:49;12.25;;;7.10;;
34481;SDS011;20720;48.886;9.388;2022-12-07T12:54:35;12.40;;;7.10;;
34481;SDS011;20720;48.886;9.388;2022-12-07T13:02:24;17.17;;;9.02;;
34481;SDS011;20720;48.886;9.388;2022-12-07T13:07:58;12.93;;;7.40;;
34481;SDS011;20720;48.886;9.388;2022-12-07T13:10:45;12.90;;;7.55;;
34481;SDS011;20720;48.886;9.388;2022-12-07T13:20:55;11.00;;;7.05;;
34481;SDS011;20720;48.886;9.388;2022-12-07T13:26:13;13.30;;;7.63;;
34481;SDS011;20720;48.886;9.388;2022-12-07T13:28:43;13.50;;;7.85;;
34481;SDS011;20720;48.886;9.388;2022-12-07T13:33:53;11.48;;;6.53;;
34481;SDS011;20720;48.886;9.388;2022-12-07T13:36:51;12.25;;;7.47;;
34481;SDS011;20720;48.886;9.388;2022-12-07T13:39:11;14.85;;;8.18;;
34481;SDS011;20720;48.886;9.388;2022-12-07T13:41:36;12.88;;;7.07;;
34481;SDS011;20720;48.886;9.388;2022-12-07T13:44:09;10.40;;;7.38;;
34481;SDS011;20720;48.886;9.388;2022-12-07T13:49:25;11.38;;;7.40;;
34481;SDS011;20720;48.886;9.388;2022-12-07T13:51:51;11.15;;;7.00;;
34481;SDS011;20720;48.886;9.388;2022-12-07T13:54:17;15.35;;;8.80;;
34481;SDS011;20720;48.886;9.388;2022-12-07T13:56:43;12.48;;;7.72;;
34481;SDS011;20720;48.886;9.388;2022-12-07T14:01:48;12.75;;;7.50;;
34481;SDS011;20720;48.886;9.388;2022-12-07T14:06:56;12.60;;;7.57;;
34481;SDS011;20720;48.886;9.388;2022-12-07T14:09:23;14.63;;;8.05;;
34481;SDS011;20720;48.886;9.388;2022-12-07T14:11:50;13.00;;;7.38;;
34481;SDS011;20720;48.886;9.388;2022-12-07T14:14:19;12.95;;;7.50;;
34481;SDS011;20720;48.886;9.388;2022-12-07T14:16:57;15.68;;;8.23;;
34481;SDS011;20720;48.886;9.388;2022-12-07T14:22:05;16.85;;;10.23;;
34481;SDS011;20720;48.886;9.388;2022-12-07T14:24:33;12.43;;;7.88;;
34481;SDS011;20720;48.886;9.388;2022-12-07T14:27:15;13.60;;;8.32;;
34481;SDS011;20720;48.886;9.388;2022-12-07T14:29:42;16.63;;;8.45;;
34481;SDS011;20720;48.886;9.388;2022-12-07T14:32:16;14.23;;;8.40;;
34481;SDS011;20720;48.886;9.388;2022-12-07T14:37:43;13.70;;;8.15;;
34481;SDS011;20720;48.886;9.388;2022-12-07T14:40:15;14.95;;;8.60;;
34481;SDS011;20720;48.886;9.388;2022-12-07T14:42:43;15.95;;;9.10;;
34481;SDS011;20720;48.886;9.388;2022-12-07T14:45:15;16.58;;;8.68;;
34481;SDS011;20720;48.886;9.388;2022-12-07T14:47:43;16.30;;;9.05;;
34481;SDS011;20720;48.886;9.388;2022-12-07T14:50:11;14.73;;;8.48;;
34481;SDS011;20720;48.886;9.388;2022-12-07T14:52:37;15.35;;;8.88;;
34481;SDS011;20720;48.886;9.388;2022-12-07T14:55:04;18.00;;;9.80;;
34481;SDS011;20720;48.886;9.388;2022-12-07T14:57:29;16.08;;;9.65;;
34481;SDS011;20720;48.886;9.388;2022-12-07T14:59:55;14.65;;;8.90;;
34481;SDS011;20720;48.886;9.388;2022-12-07T15:02:20;16.52;;;9.18;;
34481;SDS011;20720;48.886;9.388;2022-12-07T15:04:45;15.85;;;8.95;;
34481;SDS011;20720;48.886;9.388;2022-12-07T15:07:20;13.52;;;8.50;;
34481;SDS011;20720;48.886;9.388;2022-12-07T15:09:46;15.40;;;8.75;;
34481;SDS011;20720;48.886;9.388;2022-12-07T15:12:12;16.77;;;9.80;;
34481;SDS011;20720;48.886;9.388;2022-12-07T15:14:37;16.80;;;8.85;;
34481;SDS011;20720;48.886;9.388;2022-12-07T15:17:03;16.00;;;8.77;;
34481;SDS011;20720;48.886;9.388;2022-12-07T15:19:28;16.45;;;9.57;;
34481;SDS011;20720;48.886;9.388;2022-12-07T15:21:54;14.75;;;8.65;;
34481;SDS011;20720;48.886;9.388;2022-12-07T15:24:19;16.20;;;9.32;;
34481;SDS011;20720;48.886;9.388;2022-12-07T15:26:45;16.75;;;9.60;;
34481;SDS011;20720;48.886;9.388;2022-12-07T15:29:11;17.08;;;9.07;;
34481;SDS011;20720;48.886;9.388;2022-12-07T15:31:36;14.55;;;9.07;;
34481;SDS011;20720;48.886;9.388;2022-12-07T15:34:03;15.52;;;9.25;;
34481;SDS011;20720;48.886;9.388;2022-12-07T15:36:30;17.05;;;9.00;;
34481;SDS011;20720;48.886;9.388;2022-12-07T15:38:57;12.50;;;7.78;;
34481;SDS011;20720;48.886;9.388;2022-12-07T15:41:22;16.33;;;8.52;;
34481;SDS011;20720;48.886;9.388;2022-12-07T15:43:48;16.40;;;9.00;;
34481;SDS011;20720;48.886;9.388;2022-12-07T15:46:33;16.05;;;8.77;;
34481;SDS011;20720;48.886;9.388;2022-12-07T15:48:59;17.08;;;9.30;;
34481;SDS011;20720;48.886;9.388;2022-12-07T15:51:25;19.17;;;9.98;;
34481;SDS011;20720;48.886;9.388;2022-12-07T15:53:51;17.33;;;9.73;;
34481;SDS011;20720;48.886;9.388;2022-12-07T15:56:16;20.23;;;10.35;;
34481;SDS011;20720;48.886;9.388;2022-12-07T15:58:42;19.13;;;10.50;;
34481;SDS011;20720;48.886;9.388;2022-12-07T16:01:17;19.85;;;10.10;;
34481;SDS011;20720;48.886;9.388;2022-12-07T16:03:43;17.35;;;9.95;;
34481;SDS011;20720;48.886;9.388;2022-12-07T16:06:09;18.42;;;10.13;;
34481;SDS011;20720;48.886;9.388;2022-12-07T16:08:34;18.33;;;10.32;;
34481;SDS011;20720;48.886;9.388;2022-12-07T16:11:03;16.55;;;10.18;;
34481;SDS011;20720;48.886;9.388;2022-12-07T16:13:29;17.50;;;10.43;;
34481;SDS011;20720;48.886;9.388;2022-12-07T16:15:55;16.65;;;10.13;;
34481;SDS011;20720;48.886;9.388;2022-12-07T16:18:20;19.77;;;11.07;;
34481;SDS011;20720;48.886;9.388;2022-12-07T16:20:48;17.35;;;9.98;;
34481;SDS011;20720;48.886;9.388;2022-12-07T16:23:14;22.40;;;12.15;;
34481;SDS011;20720;48.886;9.388;2022-12-07T16:25:40;21.63;;;11.73;;
34481;SDS011;20720;48.886;9.388;2022-12-07T16:28:05;23.67;;;14.82;;
34481;SDS011;20720;48.886;9.388;2022-12-07T16:30:31;28.38;;;15.73;;
34481;SDS011;20720;48.886;9.388;2022-12-07T16:32:56;26.45;;;15.60;;
34481;SDS011;20720;48.886;9.388;2022-12-07T16:35:22;24.38;;;14.68;;
34481;SDS011;20720;48.886;9.388;2022-12-07T16:37:47;21.63;;;13.35;;
34481;SDS011;20720;48.886;9.388;2022-12-07T16:40:12;19.35;;;10.70;;
34481;SDS011;20720;48.886;9.388;2022-12-07T16:42:37;17.92;;;10.57;;
34481;SDS011;20720;48.886;9.388;2022-12-07T16:45:03;19.70;;;12.07;;
34481;SDS011;20720;48.886;9.388;2022-12-07T16:47:28;20.85;;;12.15;;
34481;SDS011;20720;48.886;9.388;2022-12-07T16:49:54;19.85;;;11.57;;
34481;SDS011;20720;48.886;9.388;2022-12-07T16:52:20;21.23;;;11.60;;